sensor_id;sensor_type;location;lat;lon;timestamp;pressure;altitude;pressure_sealevel;temperature;humidity
77165;BME280;66140;50.280;18.660;2022-12-18T05:00:26;100854.56;;;-5.36;88.08
77165;BME280;66140;50.280;18.660;2022-12-18T05:02:51;100845.81;;;-5.41;87.60
77165;BME280;66140;50.280;18.660;2022-12-18T05:05:17;100859.75;;;-5.36;88.38
77165;BME280;66140;50.280;18.660;2022-12-18T05:07:42;100850.22;;;-5.38;88.70
77165;BME280;66140;50.280;18.660;2022-12-18T05:10:08;100851.97;;;-5.36;88.48
77165;BME280;66140;50.280;18.660;2022-12-18T05:12:34;100855.50;;;-5.34;87.73
77165;BME280;66140;50.280;18.660;2022-12-18T05:15:19;100833.59;;;-5.46;87.48
77165;BME280;66140;50.280;18.660;2022-12-18T05:17:44;100844.88;;;-5.43;87.92
77165;BME280;66140;50.280;18.660;2022-12-18T05:20:10;100871.94;;;-5.32;88.46
77165;BME280;66140;50.280;18.660;2022-12-18T05:22:35;100830.84;;;-5.52;87.63
77165;BME280;66140;50.280;18.660;2022-12-18T05:25:01;100870.19;;;-5.33;87.13
77165;BME280;66140;50.280;18.660;2022-12-18T05:27:26;100846.53;;;-5.46;87.78
77165;BME280;66140;50.280;18.660;2022-12-18T05:29:51;100862.38;;;-5.34;87.65
77165;BME280;66140;50.280;18.660;2022-12-18T05:32:17;100852.81;;;-5.37;87.34
77165;BME280;66140;50.280;18.660;2022-12-18T05:34:42;100853.53;;;-5.42;87.85
77165;BME280;66140;50.280;18.660;2022-12-18T05:37:07;100866.78;;;-5.32;87.97
77165;BME280;66140;50.280;18.660;2022-12-18T05:39:33;100873.66;;;-5.32;88.04
77165;BME280;66140;50.280;18.660;2022-12-18T05:41:58;100859.50;;;-5.45;88.56
77165;BME280;66140;50.280;18.660;2022-12-18T05:44:23;100868.16;;;-5.43;88.27
77165;BME280;66140;50.280;18.660;2022-12-18T05:46:49;100887.41;;;-5.33;88.09
77165;BME280;66140;50.280;18.660;2022-12-18T05:49:14;100891.78;;;-5.32;87.87
77165;BME280;66140;50.280;18.660;2022-12-18T05:51:40;100878.59;;;-5.40;87.94
77165;BME280;66140;50.280;18.660;2022-12-18T05:54:05;100871.56;;;-5.44;87.17
77165;BME280;66140;50.280;18.660;2022-12-18T05:56:30;100889.88;;;-5.38;87.46
77165;BME280;66140;50.280;18.660;2022-12-18T05:58:56;100890.78;;;-5.36;87.65
77165;BME280;66140;50.280;18.660;2022-12-18T06:01:25;100889.19;;;-5.31;88.68
77165;BME280;66140;50.280;18.660;2022-12-18T06:03:51;100882.84;;;-5.42;87.18
77165;BME280;66140;50.280;18.660;2022-12-18T06:06:22;100872.25;;;-5.51;87.59
77165;BME280;66140;50.280;18.660;2022-12-18T06:08:48;100906.31;;;-5.36;87.33
77165;BME280;66140;50.280;18.660;2022-12-18T06:11:17;100909.78;;;-5.35;88.27
77165;BME280;66140;50.280;18.660;2022-12-18T06:13:43;100871.16;;;-5.59;87.84
77165;BME280;66140;50.280;18.660;2022-12-18T06:16:08;100880.75;;;-5.55;87.81
77165;BME280;66140;50.280;18.660;2022-12-18T06:18:34;100913.16;;;-5.38;87.40
77165;BME280;66140;50.280;18.660;2022-12-18T06:21:00;100913.88;;;-5.42;87.68
77165;BME280;66140;50.280;18.660;2022-12-18T06:23:25;100907.88;;;-5.41;87.91
77165;BME280;66140;50.280;18.660;2022-12-18T06:25:51;100917.47;;;-5.37;87.97
77165;BME280;66140;50.280;18.660;2022-12-18T06:28:16;100925.22;;;-5.37;88.06
77165;BME280;66140;50.280;18.660;2022-12-18T06:30:46;100919.81;;;-5.46;87.66
77165;BME280;66140;50.280;18.660;2022-12-18T06:33:13;100934.69;;;-5.39;87.67
77165;BME280;66140;50.280;18.660;2022-12-18T06:35:38;100937.91;;;-5.46;87.65
77165;BME280;66140;50.280;18.660;2022-12-18T06:38:04;100917.59;;;-5.62;87.49
77165;BME280;66140;50.280;18.660;2022-12-18T06:40:29;100936.16;;;-5.47;87.98
77165;BME280;66140;50.280;18.660;2022-12-18T06:42:55;100943.84;;;-5.48;88.27
77165;BME280;66140;50.280;18.660;2022-12-18T06:45:20;100947.16;;;-5.54;88.04
77165;BME280;66140;50.280;18.660;2022-12-18T06:47:45;100950.75;;;-5.49;88.24
77165;BME280;66140;50.280;18.660;2022-12-18T06:50:12;100931.56;;;-5.57;88.76
77165;BME280;66140;50.280;18.660;2022-12-18T06:52:37;100940.50;;;-5.46;88.60
77165;BME280;66140;50.280;18.660;2022-12-18T06:55:05;100950.84;;;-5.46;88.44
77165;BME280;66140;50.280;18.660;2022-12-18T06:57:30;100959.72;;;-5.38;87.83
77165;BME280;66140;50.280;18.660;2022-12-18T06:59:56;100943.09;;;-5.46;88.42
77165;BME280;66140;50.280;18.660;2022-12-18T07:02:21;100963.31;;;-5.33;88.01
77165;BME280;66140;50.280;18.660;2022-12-18T07:04:49;100969.38;;;-5.32;87.34
77165;BME280;66140;50.280;18.660;2022-12-18T07:07:15;100947.31;;;-5.48;87.03
77165;BME280;66140;50.280;18.660;2022-12-18T07:09:40;100969.06;;;-5.41;86.83
77165;BME280;66140;50.280;18.660;2022-12-18T07:12:06;100973.28;;;-5.45;86.85
77165;BME280;66140;50.280;18.660;2022-12-18T07:14:32;100966.25;;;-5.49;87.26
77165;BME280;66140;50.280;18.660;2022-12-18T07:16:58;100952.13;;;-5.60;86.82
77165;BME280;66140;50.280;18.660;2022-12-18T07:19:23;100958.94;;;-5.62;86.78
77165;BME280;66140;50.280;18.660;2022-12-18T07:21:50;100975.69;;;-5.51;86.94
77165;BME280;66140;50.280;18.660;2022-12-18T07:24:15;100981.69;;;-5.52;86.20
77165;BME280;66140;50.280;18.660;2022-12-18T07:26:41;100961.28;;;-5.71;86.31
77165;BME280;66140;50.280;18.660;2022-12-18T07:29:06;100986.75;;;-5.55;86.46
77165;BME280;66140;50.280;18.660;2022-12-18T07:31:31;100980.47;;;-5.63;87.09
77165;BME280;66140;50.280;18.660;2022-12-18T07:33:57;100998.84;;;-5.54;86.28
77165;BME280;66140;50.280;18.660;2022-12-18T07:36:22;100993.69;;;-5.54;87.44
77165;BME280;66140;50.280;18.660;2022-12-18T07:38:49;100979.63;;;-5.62;86.45
77165;BME280;66140;50.280;18.660;2022-12-18T07:41:15;101001.56;;;-5.51;86.03
77165;BME280;66140;50.280;18.660;2022-12-18T07:43:41;100984.81;;;-5.62;86.59
77165;BME280;66140;50.280;18.660;2022-12-18T07:46:08;100988.63;;;-5.51;87.01
77165;BME280;66140;50.280;18.660;2022-12-18T07:48:34;100999.19;;;-5.43;86.72
77165;BME280;66140;50.280;18.660;2022-12-18T07:51:00;100996.78;;;-5.37;86.22
77165;BME280;66140;50.280;18.660;2022-12-18T07:53:26;101002.94;;;-5.34;86.76
77165;BME280;66140;50.280;18.660;2022-12-18T07:55:58;100973.19;;;-5.48;86.59
77165;BME280;66140;50.280;18.660;2022-12-18T07:58:24;100999.34;;;-5.39;85.89
77165;BME280;66140;50.280;18.660;2022-12-18T08:00:50;101003.75;;;-5.35;85.35
77165;BME280;66140;50.280;18.660;2022-12-18T08:03:17;100973.38;;;-5.42;85.57
77165;BME280;66140;50.280;18.660;2022-12-18T08:05:42;101005.06;;;-5.20;84.99
77165;BME280;66140;50.280;18.660;2022-12-18T08:08:08;101003.13;;;-5.28;85.23
77165;BME280;66140;50.280;18.660;2022-12-18T08:10:33;100987.13;;;-5.43;85.42
77165;BME280;66140;50.280;18.660;2022-12-18T08:12:58;101009.06;;;-5.30;85.95
77165;BME280;66140;50.280;18.660;2022-12-18T08:15:24;101007.41;;;-5.28;85.58
77165;BME280;66140;50.280;18.660;2022-12-18T08:17:49;101008.28;;;-5.28;85.86
77165;BME280;66140;50.280;18.660;2022-12-18T08:20:15;100989.78;;;-5.41;86.29
77165;BME280;66140;50.280;18.660;2022-12-18T08:22:41;101003.63;;;-5.39;85.08
77165;BME280;66140;50.280;18.660;2022-12-18T08:25:07;101002.69;;;-5.41;85.61
77165;BME280;66140;50.280;18.660;2022-12-18T08:27:33;101022.75;;;-5.34;85.00
77165;BME280;66140;50.280;18.660;2022-12-18T08:29:58;101034.03;;;-5.32;84.65
77165;BME280;66140;50.280;18.660;2022-12-18T08:32:27;101021.94;;;-5.33;85.67
77165;BME280;66140;50.280;18.660;2022-12-18T08:34:53;101022.50;;;-5.42;84.84
77165;BME280;66140;50.280;18.660;2022-12-18T08:37:19;101033.09;;;-5.34;85.62
77165;BME280;66140;50.280;18.660;2022-12-18T08:39:44;101038.22;;;-5.36;84.59
77165;BME280;66140;50.280;18.660;2022-12-18T08:42:10;101027.63;;;-5.43;85.33
77165;BME280;66140;50.280;18.660;2022-12-18T08:44:54;101047.09;;;-5.28;84.79
77165;BME280;66140;50.280;18.660;2022-12-18T08:47:19;101019.84;;;-5.45;85.59
77165;BME280;66140;50.280;18.660;2022-12-18T08:49:45;101050.38;;;-5.33;85.22
77165;BME280;66140;50.280;18.660;2022-12-18T08:52:10;101067.03;;;-5.23;85.30
77165;BME280;66140;50.280;18.660;2022-12-18T08:54:36;101058.09;;;-5.35;84.61
77165;BME280;66140;50.280;18.660;2022-12-18T08:57:02;101037.31;;;-5.38;84.31
77165;BME280;66140;50.280;18.660;2022-12-18T08:59:27;101043.75;;;-5.25;84.96
77165;BME280;66140;50.280;18.660;2022-12-18T09:01:53;101040.41;;;-5.21;83.98
77165;BME280;66140;50.280;18.660;2022-12-18T09:04:19;101050.94;;;-5.15;83.56
77165;BME280;66140;50.280;18.660;2022-12-18T09:06:44;101034.06;;;-5.31;82.84
77165;BME280;66140;50.280;18.660;2022-12-18T09:09:10;101069.00;;;-5.16;82.93
77165;BME280;66140;50.280;18.660;2022-12-18T09:11:36;101044.31;;;-5.34;82.84
77165;BME280;66140;50.280;18.660;2022-12-18T09:14:02;101055.81;;;-5.24;83.17
77165;BME280;66140;50.280;18.660;2022-12-18T09:16:29;101033.88;;;-5.37;83.56
77165;BME280;66140;50.280;18.660;2022-12-18T09:18:55;101039.03;;;-5.37;82.44
77165;BME280;66140;50.280;18.660;2022-12-18T09:21:25;101067.41;;;-5.13;82.89
77165;BME280;66140;50.280;18.660;2022-12-18T09:23:52;101085.78;;;-5.04;83.88
77165;BME280;66140;50.280;18.660;2022-12-18T09:26:18;101077.25;;;-5.01;83.64
77165;BME280;66140;50.280;18.660;2022-12-18T09:28:44;101045.06;;;-5.09;83.43
77165;BME280;66140;50.280;18.660;2022-12-18T09:31:12;101066.25;;;-4.94;83.38
77165;BME280;66140;50.280;18.660;2022-12-18T09:33:38;101062.81;;;-4.93;82.13
77165;BME280;66140;50.280;18.660;2022-12-18T09:36:05;101075.09;;;-4.86;82.69
77165;BME280;66140;50.280;18.660;2022-12-18T09:38:32;101056.66;;;-4.97;83.33
77165;BME280;66140;50.280;18.660;2022-12-18T09:41:01;101065.59;;;-4.86;82.63
77165;BME280;66140;50.280;18.660;2022-12-18T09:43:48;101072.66;;;-4.81;82.28
77165;BME280;66140;50.280;18.660;2022-12-18T09:46:25;101049.78;;;-4.96;81.41
77165;BME280;66140;50.280;18.660;2022-12-18T09:48:54;101054.19;;;-4.92;82.00
77165;BME280;66140;50.280;18.660;2022-12-18T09:54:21;101064.13;;;-4.77;79.88
77165;BME280;66140;50.280;18.660;2022-12-18T09:56:49;101077.19;;;-4.73;80.18
77165;BME280;66140;50.280;18.660;2022-12-18T09:59:25;101060.78;;;-4.75;80.69
77165;BME280;66140;50.280;18.660;2022-12-18T10:01:51;101066.84;;;-4.73;81.92
77165;BME280;66140;50.280;18.660;2022-12-18T10:04:17;101082.94;;;-4.55;80.46
77165;BME280;66140;50.280;18.660;2022-12-18T10:06:52;101073.66;;;-4.47;81.05
77165;BME280;66140;50.280;18.660;2022-12-18T10:09:40;101061.56;;;-4.46;80.66
77165;BME280;66140;50.280;18.660;2022-12-18T10:12:16;101059.75;;;-4.50;79.57
77165;BME280;66140;50.280;18.660;2022-12-18T10:20:02;101058.59;;;-4.30;79.83
77165;BME280;66140;50.280;18.660;2022-12-18T10:22:57;101063.78;;;-4.28;79.59
77165;BME280;66140;50.280;18.660;2022-12-18T10:28:14;101048.84;;;-4.38;79.96
77165;BME280;66140;50.280;18.660;2022-12-18T10:30:43;101046.16;;;-4.41;80.47
77165;BME280;66140;50.280;18.660;2022-12-18T10:33:13;101052.34;;;-4.36;80.28
77165;BME280;66140;50.280;18.660;2022-12-18T10:35:41;101014.06;;;-4.47;81.12
77165;BME280;66140;50.280;18.660;2022-12-18T10:40:55;101051.84;;;-4.23;78.61
77165;BME280;66140;50.280;18.660;2022-12-18T10:43:24;101021.16;;;-4.39;77.29
77165;BME280;66140;50.280;18.660;2022-12-18T10:51:06;101040.28;;;-4.36;78.55
77165;BME280;66140;50.280;18.660;2022-12-18T10:53:36;101039.41;;;-4.35;77.30
77165;BME280;66140;50.280;18.660;2022-12-18T10:56:04;101029.22;;;-4.30;77.23
77165;BME280;66140;50.280;18.660;2022-12-18T10:58:36;101015.94;;;-4.42;76.71
77165;BME280;66140;50.280;18.660;2022-12-18T11:01:06;101019.66;;;-4.31;79.04
77165;BME280;66140;50.280;18.660;2022-12-18T11:03:43;101010.28;;;-4.26;78.59
77165;BME280;66140;50.280;18.660;2022-12-18T11:06:20;101010.50;;;-4.19;77.17
77165;BME280;66140;50.280;18.660;2022-12-18T11:09:02;101009.84;;;-4.12;78.81
77165;BME280;66140;50.280;18.660;2022-12-18T11:11:29;101013.47;;;-4.05;76.89
77165;BME280;66140;50.280;18.660;2022-12-18T11:16:28;101014.59;;;-3.94;75.23
77165;BME280;66140;50.280;18.660;2022-12-18T11:21:44;100995.53;;;-3.96;76.63
77165;BME280;66140;50.280;18.660;2022-12-18T11:24:24;100988.44;;;-4.03;76.37
77165;BME280;66140;50.280;18.660;2022-12-18T11:26:51;101018.13;;;-3.92;77.81
77165;BME280;66140;50.280;18.660;2022-12-18T11:29:19;101021.75;;;-3.84;76.52
77165;BME280;66140;50.280;18.660;2022-12-18T11:31:47;101004.94;;;-3.99;77.22
77165;BME280;66140;50.280;18.660;2022-12-18T11:34:23;101027.72;;;-3.88;77.23
77165;BME280;66140;50.280;18.660;2022-12-18T11:36:52;101025.88;;;-3.92;77.63
77165;BME280;66140;50.280;18.660;2022-12-18T11:39:24;101023.81;;;-4.05;77.32
77165;BME280;66140;50.280;18.660;2022-12-18T11:42:01;101033.31;;;-4.06;76.41
77165;BME280;66140;50.280;18.660;2022-12-18T11:44:52;101036.63;;;-4.10;75.78
77165;BME280;66140;50.280;18.660;2022-12-18T11:50:30;101035.84;;;-4.07;77.70
77165;BME280;66140;50.280;18.660;2022-12-18T11:52:57;101041.03;;;-4.07;77.72
77165;BME280;66140;50.280;18.660;2022-12-18T12:09:23;101040.81;;;-4.16;78.34
77165;BME280;66140;50.280;18.660;2022-12-18T12:12:20;101041.59;;;-4.19;78.50
77165;BME280;66140;50.280;18.660;2022-12-18T12:17:30;101048.41;;;-4.22;79.50
77165;BME280;66140;50.280;18.660;2022-12-18T12:23:01;101062.22;;;-4.23;80.15
77165;BME280;66140;50.280;18.660;2022-12-18T12:25:41;101070.00;;;-4.23;80.34
77165;BME280;66140;50.280;18.660;2022-12-18T12:34:39;101071.66;;;-4.25;79.97
77165;BME280;66140;50.280;18.660;2022-12-18T12:39:46;101065.50;;;-4.29;79.62
77165;BME280;66140;50.280;18.660;2022-12-18T12:42:18;101076.84;;;-4.25;79.46
77165;BME280;66140;50.280;18.660;2022-12-18T12:45:05;101071.50;;;-4.31;80.26
77165;BME280;66140;50.280;18.660;2022-12-18T12:47:35;101069.84;;;-4.29;79.67
77165;BME280;66140;50.280;18.660;2022-12-18T12:50:05;101068.06;;;-4.30;79.78
77165;BME280;66140;50.280;18.660;2022-12-18T12:52:44;101067.97;;;-4.33;80.04
77165;BME280;66140;50.280;18.660;2022-12-18T12:55:25;101067.03;;;-4.37;80.03
77165;BME280;66140;50.280;18.660;2022-12-18T12:58:11;101073.09;;;-4.36;80.91
77165;BME280;66140;50.280;18.660;2022-12-18T13:00:46;101045.97;;;-4.49;79.66
77165;BME280;66140;50.280;18.660;2022-12-18T13:03:36;101067.81;;;-4.39;80.53
77165;BME280;66140;50.280;18.660;2022-12-18T13:06:28;101071.94;;;-4.46;79.03
77165;BME280;66140;50.280;18.660;2022-12-18T13:09:00;101055.28;;;-4.54;79.60
77165;BME280;66140;50.280;18.660;2022-12-18T13:11:43;101068.34;;;-4.51;80.01
77165;BME280;66140;50.280;18.660;2022-12-18T13:14:32;101069.28;;;-4.49;80.05
77165;BME280;66140;50.280;18.660;2022-12-18T13:19:50;101079.41;;;-4.57;80.35
77165;BME280;66140;50.280;18.660;2022-12-18T13:22:34;101079.41;;;-4.57;81.60
77165;BME280;66140;50.280;18.660;2022-12-18T13:25:00;101070.53;;;-4.65;81.17
77165;BME280;66140;50.280;18.660;2022-12-18T13:28:07;101066.84;;;-4.73;81.69
77165;BME280;66140;50.280;18.660;2022-12-18T13:31:05;101071.94;;;-4.76;80.61
77165;BME280;66140;50.280;18.660;2022-12-18T13:33:42;101087.66;;;-4.70;81.70
77165;BME280;66140;50.280;18.660;2022-12-18T13:36:32;101078.88;;;-4.75;81.59
77165;BME280;66140;50.280;18.660;2022-12-18T13:39:23;101080.44;;;-4.80;81.05
77165;BME280;66140;50.280;18.660;2022-12-18T13:44:58;101062.25;;;-5.11;81.70
77165;BME280;66140;50.280;18.660;2022-12-18T13:47:35;101085.91;;;-4.99;81.99
77165;BME280;66140;50.280;18.660;2022-12-18T13:50:34;101035.19;;;-5.22;82.01
77165;BME280;66140;50.280;18.660;2022-12-18T13:53:29;101060.41;;;-5.15;82.83
77165;BME280;66140;50.280;18.660;2022-12-18T13:56:02;101051.63;;;-5.20;81.74
77165;BME280;66140;50.280;18.660;2022-12-18T13:58:40;101053.09;;;-5.29;82.20
77165;BME280;66140;50.280;18.660;2022-12-18T14:01:24;101061.78;;;-5.27;82.97
77165;BME280;66140;50.280;18.660;2022-12-18T14:04:12;101049.38;;;-5.37;82.82
77165;BME280;66140;50.280;18.660;2022-12-18T14:06:43;101074.72;;;-5.27;83.01
77165;BME280;66140;50.280;18.660;2022-12-18T14:09:27;101075.44;;;-5.31;83.09
77165;BME280;66140;50.280;18.660;2022-12-18T14:12:03;101067.22;;;-5.46;83.68
77165;BME280;66140;50.280;18.660;2022-12-18T14:14:49;101073.31;;;-5.44;83.32
77165;BME280;66140;50.280;18.660;2022-12-18T14:17:19;101068.78;;;-5.51;83.70
77165;BME280;66140;50.280;18.660;2022-12-18T14:19:51;101047.41;;;-5.72;83.54
77165;BME280;66140;50.280;18.660;2022-12-18T14:22:38;101082.22;;;-5.61;84.58
77165;BME280;66140;50.280;18.660;2022-12-18T14:25:23;101047.66;;;-5.91;83.32
77165;BME280;66140;50.280;18.660;2022-12-18T14:30:36;101073.59;;;-5.88;84.38
77165;BME280;66140;50.280;18.660;2022-12-18T14:35:35;101071.94;;;-6.12;84.80
77165;BME280;66140;50.280;18.660;2022-12-18T14:40:42;101079.88;;;-6.31;84.83
77165;BME280;66140;50.280;18.660;2022-12-18T14:43:11;101104.88;;;-6.30;85.50
77165;BME280;66140;50.280;18.660;2022-12-18T14:45:38;101102.78;;;-6.40;85.67
77165;BME280;66140;50.280;18.660;2022-12-18T14:48:23;101111.25;;;-6.44;85.93
77165;BME280;66140;50.280;18.660;2022-12-18T14:51:00;101098.63;;;-6.60;85.84
77165;BME280;66140;50.280;18.660;2022-12-18T14:53:42;101114.19;;;-6.57;85.92
77165;BME280;66140;50.280;18.660;2022-12-18T14:56:16;101117.22;;;-6.69;85.74
77165;BME280;66140;50.280;18.660;2022-12-18T14:58:47;101124.06;;;-6.69;85.70
77165;BME280;66140;50.280;18.660;2022-12-18T15:01:37;101125.53;;;-6.76;86.13
77165;BME280;66140;50.280;18.660;2022-12-18T15:04:05;101112.41;;;-6.82;85.84
77165;BME280;66140;50.280;18.660;2022-12-18T15:06:48;101120.75;;;-6.89;86.10
77165;BME280;66140;50.280;18.660;2022-12-18T15:09:25;101118.56;;;-7.01;85.75
77165;BME280;66140;50.280;18.660;2022-12-18T15:11:56;101135.00;;;-6.99;86.62
77165;BME280;66140;50.280;18.660;2022-12-18T15:16:55;101137.84;;;-7.13;85.56
77165;BME280;66140;50.280;18.660;2022-12-18T15:19:33;101110.09;;;-7.41;86.22
77165;BME280;66140;50.280;18.660;2022-12-18T15:22:00;101121.22;;;-7.42;86.40
77165;BME280;66140;50.280;18.660;2022-12-18T15:24:30;101122.97;;;-7.41;85.98
77165;BME280;66140;50.280;18.660;2022-12-18T15:26:56;101126.13;;;-7.48;86.18
77165;BME280;66140;50.280;18.660;2022-12-18T15:29:22;101142.44;;;-7.49;86.17
77165;BME280;66140;50.280;18.660;2022-12-18T15:31:59;101134.78;;;-7.67;86.01
77165;BME280;66140;50.280;18.660;2022-12-18T15:34:25;101118.81;;;-7.79;85.16
77165;BME280;66140;50.280;18.660;2022-12-18T15:36:51;101149.25;;;-7.71;85.93
77165;BME280;66140;50.280;18.660;2022-12-18T15:39:17;101145.28;;;-7.83;86.82
77165;BME280;66140;50.280;18.660;2022-12-18T15:41:42;101138.66;;;-7.97;86.41
77165;BME280;66140;50.280;18.660;2022-12-18T15:44:28;101159.19;;;-7.99;87.03
77165;BME280;66140;50.280;18.660;2022-12-18T15:46:53;101169.38;;;-8.02;87.10
77165;BME280;66140;50.280;18.660;2022-12-18T15:49:18;101162.13;;;-8.11;85.93
77165;BME280;66140;50.280;18.660;2022-12-18T15:51:44;101141.16;;;-8.20;87.32
77165;BME280;66140;50.280;18.660;2022-12-18T15:54:13;101150.75;;;-8.16;87.32
77165;BME280;66140;50.280;18.660;2022-12-18T15:56:41;101166.13;;;-8.17;86.62
77165;BME280;66140;50.280;18.660;2022-12-18T15:59:25;101161.50;;;-8.24;86.25
77165;BME280;66140;50.280;18.660;2022-12-18T16:01:51;101169.00;;;-8.30;85.10
77165;BME280;66140;50.280;18.660;2022-12-18T16:04:19;101160.06;;;-8.38;87.27
77165;BME280;66140;50.280;18.660;2022-12-18T16:06:48;101173.00;;;-8.37;86.35
77165;BME280;66140;50.280;18.660;2022-12-18T16:09:14;101160.13;;;-8.56;86.75
77165;BME280;66140;50.280;18.660;2022-12-18T16:11:41;101125.63;;;-8.79;85.96
77165;BME280;66140;50.280;18.660;2022-12-18T16:14:23;101161.84;;;-8.74;85.89
77165;BME280;66140;50.280;18.660;2022-12-18T16:17:03;101158.56;;;-8.72;86.44
77165;BME280;66140;50.280;18.660;2022-12-18T16:19:30;101154.81;;;-8.78;87.01
77165;BME280;66140;50.280;18.660;2022-12-18T16:21:57;101118.97;;;-8.93;86.76
77165;BME280;66140;50.280;18.660;2022-12-18T16:24:25;101164.78;;;-8.67;86.79
77165;BME280;66140;50.280;18.660;2022-12-18T16:26:52;101165.66;;;-8.66;87.34
77165;BME280;66140;50.280;18.660;2022-12-18T16:29:19;101152.97;;;-8.81;86.13
77165;BME280;66140;50.280;18.660;2022-12-18T16:31:50;101154.56;;;-8.83;86.61
77165;BME280;66140;50.280;18.660;2022-12-18T16:36:49;101111.44;;;-9.08;85.94
77165;BME280;66140;50.280;18.660;2022-12-18T16:39:15;101166.34;;;-8.88;85.22
77165;BME280;66140;50.280;18.660;2022-12-18T16:41:41;101132.59;;;-9.13;86.15
77165;BME280;66140;50.280;18.660;2022-12-18T16:44:06;101139.88;;;-9.05;85.99
77165;BME280;66140;50.280;18.660;2022-12-18T16:46:51;101160.00;;;-8.96;86.81
77165;BME280;66140;50.280;18.660;2022-12-18T16:49:17;101158.00;;;-9.02;86.30
77165;BME280;66140;50.280;18.660;2022-12-18T16:51:45;101122.81;;;-9.20;85.80
77165;BME280;66140;50.280;18.660;2022-12-18T16:54:11;101106.81;;;-9.33;86.24
77165;BME280;66140;50.280;18.660;2022-12-18T16:56:36;101114.75;;;-9.28;87.18
77165;BME280;66140;50.280;18.660;2022-12-18T16:59:03;101112.94;;;-9.30;86.28
77165;BME280;66140;50.280;18.660;2022-12-18T17:01:30;101130.53;;;-9.20;86.25
77165;BME280;66140;50.280;18.660;2022-12-18T17:03:58;101099.72;;;-9.38;86.78
77165;BME280;66140;50.280;18.660;2022-12-18T17:06:25;101086.72;;;-9.41;86.61
77165;BME280;66140;50.280;18.660;2022-12-18T17:09:11;101087.75;;;-9.38;86.52
77165;BME280;66140;50.280;18.660;2022-12-18T17:11:38;101112.78;;;-9.34;86.80
77165;BME280;66140;50.280;18.660;2022-12-18T17:14:11;101080.34;;;-9.49;85.95
77165;BME280;66140;50.280;18.660;2022-12-18T17:16:37;101089.22;;;-9.43;86.55
77165;BME280;66140;50.280;18.660;2022-12-18T17:19:03;101082.75;;;-9.52;86.52
77165;BME280;66140;50.280;18.660;2022-12-18T17:21:29;101132.97;;;-9.23;88.63
77165;BME280;66140;50.280;18.660;2022-12-18T17:23:54;101074.31;;;-9.50;88.89
77165;BME280;66140;50.280;18.660;2022-12-18T17:26:20;101091.28;;;-9.36;87.93
77165;BME280;66140;50.280;18.660;2022-12-18T17:28:45;101086.50;;;-9.46;87.22
77165;BME280;66140;50.280;18.660;2022-12-18T17:31:17;101105.44;;;-9.44;87.63
77165;BME280;66140;50.280;18.660;2022-12-18T17:33:43;101113.81;;;-9.48;86.52
77165;BME280;66140;50.280;18.660;2022-12-18T17:36:09;101110.88;;;-9.55;86.08
77165;BME280;66140;50.280;18.660;2022-12-18T17:38:35;101136.09;;;-9.47;86.42
77165;BME280;66140;50.280;18.660;2022-12-18T17:41:03;101114.53;;;-9.68;86.95
77165;BME280;66140;50.280;18.660;2022-12-18T17:43:29;101084.94;;;-9.78;87.62
77165;BME280;66140;50.280;18.660;2022-12-18T17:45:55;101114.84;;;-9.62;86.89
77165;BME280;66140;50.280;18.660;2022-12-18T17:48:20;101104.56;;;-9.62;86.74
77165;BME280;66140;50.280;18.660;2022-12-18T17:50:46;101107.94;;;-9.63;86.40
77165;BME280;66140;50.280;18.660;2022-12-18T17:53:11;101104.28;;;-9.68;86.74
77165;BME280;66140;50.280;18.660;2022-12-18T17:55:38;101098.53;;;-9.80;86.59
77165;BME280;66140;50.280;18.660;2022-12-18T17:58:03;101110.00;;;-9.74;85.71
77165;BME280;66140;50.280;18.660;2022-12-18T18:00:29;101124.50;;;-9.74;86.15
77165;BME280;66140;50.280;18.660;2022-12-18T18:02:54;101116.13;;;-9.88;86.16
77165;BME280;66140;50.280;18.660;2022-12-18T18:05:20;101098.56;;;-9.96;85.88
77165;BME280;66140;50.280;18.660;2022-12-18T18:07:46;101113.47;;;-9.89;87.15
77165;BME280;66140;50.280;18.660;2022-12-18T18:10:11;101140.56;;;-9.78;87.07
77165;BME280;66140;50.280;18.660;2022-12-18T18:12:37;101097.47;;;-10.01;86.96
77165;BME280;66140;50.280;18.660;2022-12-18T18:15:21;101138.25;;;-9.74;88.69
77165;BME280;66140;50.280;18.660;2022-12-18T18:17:46;101153.06;;;-9.68;88.64
77165;BME280;66140;50.280;18.660;2022-12-18T18:20:15;101105.56;;;-9.94;89.17
77165;BME280;66140;50.280;18.660;2022-12-18T18:22:41;101118.78;;;-9.86;88.89
77165;BME280;66140;50.280;18.660;2022-12-18T18:25:06;101128.69;;;-9.76;89.17
77165;BME280;66140;50.280;18.660;2022-12-18T18:27:32;101115.84;;;-9.76;89.58
77165;BME280;66140;50.280;18.660;2022-12-18T18:29:57;101128.25;;;-9.67;90.45
77165;BME280;66140;50.280;18.660;2022-12-18T18:32:23;101118.56;;;-9.73;90.06
77165;BME280;66140;50.280;18.660;2022-12-18T18:34:48;101109.41;;;-9.68;90.10
77165;BME280;66140;50.280;18.660;2022-12-18T18:37:14;101101.91;;;-9.63;90.46
77165;BME280;66140;50.280;18.660;2022-12-18T18:39:40;101122.16;;;-9.52;89.78
77165;BME280;66140;50.280;18.660;2022-12-18T18:42:05;101116.91;;;-9.55;89.76
77165;BME280;66140;50.280;18.660;2022-12-18T18:44:31;101166.00;;;-9.31;89.37
77165;BME280;66140;50.280;18.660;2022-12-18T18:46:57;101146.84;;;-9.38;90.42
77165;BME280;66140;50.280;18.660;2022-12-18T18:49:23;101143.03;;;-9.46;89.55
77165;BME280;66140;50.280;18.660;2022-12-18T18:51:51;101191.88;;;-9.10;90.25
77165;BME280;66140;50.280;18.660;2022-12-18T18:54:16;101176.97;;;-9.17;90.11
77165;BME280;66140;50.280;18.660;2022-12-18T18:56:42;101178.72;;;-9.16;89.24
77165;BME280;66140;50.280;18.660;2022-12-18T18:59:10;101147.88;;;-9.34;88.99
77165;BME280;66140;50.280;18.660;2022-12-18T19:01:35;101139.34;;;-9.33;89.55
77165;BME280;66140;50.280;18.660;2022-12-18T19:04:01;101155.81;;;-9.29;88.73
77165;BME280;66140;50.280;18.660;2022-12-18T19:06:27;101183.13;;;-9.14;89.47
77165;BME280;66140;50.280;18.660;2022-12-18T19:08:53;101166.22;;;-9.26;88.92